Time;durP1;ratioP1;P1;durP2;ratioP2;P2;SDS_P1;SDS_P2;PMS_P1;PMS_P2;Temp;Humidity;BMP_temperature;BMP_pressure;BME280_temperature;BME280_humidity;BME280_pressure;Samples;Min_cycle;Max_cycle;Signal;HPM_P1;HPM_P2
2022/06/24 00:01:35;;;;;;;6.70;2.03;;;21.90;94.10;;;;;;5071966;28;20450;-73
2022/06/24 00:04:23;;;;;;;4.70;1.70;;;21.80;95.50;;;;;;5067300;28;20470;-73
2022/06/24 00:07:16;;;;;;;4.63;1.40;;;21.80;96.40;;;;;;5070020;28;20439;-73
2022/06/24 00:10:02;;;;;;;8.50;1.80;;;21.90;96.60;;;;;;5070805;28;20800;-73
2022/06/24 00:12:51;;;;;;;3.80;1.47;;;21.90;96.70;;;;;;5081869;28;20906;-73
2022/06/24 00:15:38;;;;;;;5.07;1.63;;;22.00;97.00;;;;;;5073506;28;20466;-73
2022/06/24 00:18:24;;;;;;;6.70;1.70;;;22.00;96.90;;;;;;5064258;28;20541;-73
2022/06/24 00:21:13;;;;;;;6.80;2.00;;;22.00;97.20;;;;;;5076362;28;20585;-73
2022/06/24 00:23:58;;;;;;;6.80;1.80;;;22.10;97.20;;;;;;5071347;28;20529;-73
2022/06/24 00:26:44;;;;;;;7.77;1.80;;;22.00;97.60;;;;;;5070370;28;20496;-73
2022/06/24 00:29:33;;;;;;;3.90;1.60;;;21.80;98.80;;;;;;5068766;28;21119;-73
2022/06/24 00:32:31;;;;;;;5.03;1.57;;;21.80;99.60;;;;;;5067514;28;20454;-73
2022/06/24 00:35:19;;;;;;;7.30;1.97;;;21.80;99.90;;;;;;5062548;28;20447;-73
2022/06/24 00:38:21;;;;;;;12.13;1.80;;;21.80;99.90;;;;;;5069964;28;20844;-73
2022/06/24 00:41:09;;;;;;;7.60;1.50;;;21.60;99.90;;;;;;5064378;28;20453;-73
2022/06/24 00:43:59;;;;;;;9.30;1.77;;;21.60;99.90;;;;;;5074115;28;20983;-73
2022/06/24 00:46:48;;;;;;;4.17;1.37;;;21.70;99.90;;;;;;5076526;28;20936;-73
2022/06/24 00:49:34;;;;;;;4.67;1.57;;;21.70;99.90;;;;;;5066951;28;20860;-73
2022/06/24 00:52:20;;;;;;;10.53;2.20;;;21.60;99.90;;;;;;5076737;28;20465;-73
2022/06/24 00:55:07;;;;;;;4.20;1.70;;;21.60;99.90;;;;;;5066688;28;20449;-73
2022/06/24 00:57:53;;;;;;;6.77;1.43;;;21.40;99.90;;;;;;5074505;28;20807;-73
2022/06/24 01:00:41;;;;;;;4.97;2.00;;;21.20;99.90;;;;;;5060743;28;20524;-73
2022/06/24 01:03:39;;;;;;;5.83;1.60;;;21.10;99.90;;;;;;5073603;28;20476;-73
2022/06/24 01:06:25;;;;;;;7.30;2.00;;;21.10;99.90;;;;;;5076724;28;20972;-73
2022/06/24 01:09:11;;;;;;;7.53;2.17;;;21.00;99.90;;;;;;5074567;28;21001;-73
2022/06/24 01:11:57;;;;;;;10.07;1.77;;;20.80;99.90;;;;;;5075769;28;20480;-73
2022/06/24 01:14:43;;;;;;;4.90;1.87;;;20.80;99.90;;;;;;5078176;28;20453;-73
2022/06/24 01:17:29;;;;;;;3.87;1.73;;;20.90;99.90;;;;;;5065844;28;20473;-73
2022/06/24 01:20:16;;;;;;;7.67;1.40;;;20.90;99.90;;;;;;5077144;28;20450;-73
2022/06/24 01:23:03;;;;;;;6.03;1.53;;;20.80;99.90;;;;;;5073859;28;21078;-73
2022/06/24 01:25:49;;;;;;;9.67;1.63;;;20.70;99.90;;;;;;5070425;28;20504;-73
2022/06/24 01:28:34;;;;;;;8.00;1.80;;;20.70;99.90;;;;;;5069582;28;20454;-73
2022/06/24 01:31:20;;;;;;;9.07;2.30;;;20.70;99.90;;;;;;5083047;28;20430;-73
2022/06/24 01:34:05;;;;;;;7.43;1.60;;;20.80;99.90;;;;;;5081908;28;20446;-73
2022/06/24 01:36:51;;;;;;;6.07;1.80;;;20.80;99.90;;;;;;5063331;28;20473;-73
2022/06/24 01:39:38;;;;;;;8.13;2.10;;;20.80;99.90;;;;;;5074171;28;21006;-73
2022/06/24 01:42:24;;;;;;;5.57;1.53;;;20.80;99.90;;;;;;5077429;28;20504;-73
2022/06/24 01:45:10;;;;;;;5.93;1.40;;;20.70;99.90;;;;;;5073277;28;20970;-73
2022/06/24 01:47:56;;;;;;;9.63;1.43;;;20.40;99.90;;;;;;5069247;28;20887;-73
2022/06/24 01:50:41;;;;;;;4.50;1.30;;;20.20;99.90;;;;;;5072491;28;20445;-73
2022/06/24 01:53:27;;;;;;;3.70;1.57;;;20.00;99.90;;;;;;5069352;28;20461;-73
2022/06/24 01:56:14;;;;;;;3.53;1.27;;;19.80;99.90;;;;;;5068876;28;20481;-72
2022/06/24 01:59:00;;;;;;;4.00;1.80;;;19.80;99.90;;;;;;5081791;28;20418;-73
2022/06/24 02:01:46;;;;;;;2.10;1.53;;;19.70;99.90;;;;;;5083639;28;21071;-73
2022/06/24 02:04:32;;;;;;;3.00;1.37;;;19.70;99.90;;;;;;5080699;28;20793;-73
2022/06/24 02:07:17;;;;;;;2.83;1.40;;;19.60;99.90;;;;;;5065965;28;20443;-73
2022/06/24 02:13:27;;;;;;;3.80;1.70;;;19.60;99.90;;;;;;5048520;28;20546;-73
2022/06/24 02:16:13;;;;;;;6.30;1.87;;;19.60;99.90;;;;;;5042622;28;20479;-73
2022/06/24 02:18:59;;;;;;;5.90;1.53;;;19.70;99.90;;;;;;5075727;28;20936;-73
2022/06/24 02:21:44;;;;;;;9.00;1.30;;;19.90;99.90;;;;;;5071939;28;20423;-73
2022/06/24 02:24:30;;;;;;;7.03;1.20;;;20.00;99.90;;;;;;5077333;28;20494;-73
2022/06/24 02:27:15;;;;;;;5.20;1.60;;;20.20;99.90;;;;;;5067347;28;20430;-73
2022/06/24 02:30:02;;;;;;;6.70;1.57;;;20.30;99.90;;;;;;5074552;28;20483;-73
2022/06/24 02:32:48;;;;;;;2.67;1.70;;;20.20;99.90;;;;;;5069673;28;20522;-73
2022/06/24 02:35:34;;;;;;;2.70;1.50;;;20.20;99.90;;;;;;5075471;28;20434;-73
2022/06/24 02:38:20;;;;;;;9.27;2.10;;;20.00;99.90;;;;;;5073683;28;20423;-73
2022/06/24 02:41:06;;;;;;;3.97;1.33;;;20.00;99.90;;;;;;5081490;28;20443;-73
2022/06/24 02:43:52;;;;;;;3.00;1.30;;;20.00;99.90;;;;;;5078787;28;20451;-73
2022/06/24 02:46:39;;;;;;;6.83;1.67;;;19.90;99.90;;;;;;5070657;28;20435;-73
2022/06/24 02:49:25;;;;;;;4.30;1.80;;;19.90;99.90;;;;;;5075428;28;20485;-73
2022/06/24 02:52:10;;;;;;;4.47;1.53;;;20.00;99.90;;;;;;5074004;28;20442;-73
2022/06/24 02:54:56;;;;;;;8.80;2.03;;;20.10;99.90;;;;;;5071119;28;20569;-73
2022/06/24 02:57:41;;;;;;;7.73;2.43;;;20.00;99.90;;;;;;5079598;28;20551;-73
2022/06/24 03:00:26;;;;;;;6.60;1.83;;;20.00;99.90;;;;;;5072192;28;20446;-73
2022/06/24 03:03:15;;;;;;;6.70;1.83;;;20.00;99.90;;;;;;5074243;28;20450;-73
2022/06/24 03:06:01;;;;;;;6.50;2.50;;;20.00;99.90;;;;;;5076291;28;20465;-73
2022/06/24 03:08:47;;;;;;;4.60;1.60;;;20.00;99.90;;;;;;5084860;28;20423;-73
2022/06/24 03:11:33;;;;;;;10.23;2.63;;;20.00;99.90;;;;;;5074932;28;20798;-72
2022/06/24 03:14:19;;;;;;;6.53;2.90;;;19.90;99.90;;;;;;5076958;28;20482;-73
2022/06/24 03:17:05;;;;;;;8.20;1.93;;;19.90;99.90;;;;;;5076738;28;20460;-73
2022/06/24 03:19:52;;;;;;;5.83;2.10;;;19.90;99.90;;;;;;5068047;28;20458;-73
2022/06/24 03:22:38;;;;;;;8.93;2.00;;;19.80;99.90;;;;;;5067650;28;20917;-73
2022/06/24 03:25:25;;;;;;;8.47;2.00;;;19.70;99.90;;;;;;5060641;28;20446;-73
2022/06/24 03:28:11;;;;;;;8.87;2.47;;;19.60;99.90;;;;;;5072838;28;20506;-73
2022/06/24 03:30:57;;;;;;;3.47;2.00;;;19.70;99.90;;;;;;5068945;28;21042;-73
2022/06/24 03:33:43;;;;;;;8.03;2.00;;;19.60;99.90;;;;;;5064035;28;20708;-73
2022/06/24 03:36:29;;;;;;;6.70;1.93;;;19.70;99.90;;;;;;5072163;28;20478;-73
2022/06/24 03:39:15;;;;;;;5.60;1.80;;;19.70;99.90;;;;;;5072961;28;20552;-73
2022/06/24 03:42:01;;;;;;;7.50;2.10;;;19.60;99.90;;;;;;5071930;28;20553;-73
2022/06/24 03:44:46;;;;;;;8.00;2.53;;;19.70;99.90;;;;;;5072460;28;20537;-73
2022/06/24 03:47:32;;;;;;;4.47;1.80;;;19.60;99.90;;;;;;5070753;28;20450;-73
2022/06/24 03:50:18;;;;;;;5.83;2.17;;;19.40;99.90;;;;;;5068853;28;20452;-73
2022/06/24 03:53:05;;;;;;;7.70;2.30;;;19.50;99.90;;;;;;5073058;28;20484;-73
2022/06/24 03:55:51;;;;;;;6.40;2.33;;;19.60;99.90;;;;;;5064569;28;20442;-73
2022/06/24 03:58:37;;;;;;;5.20;1.90;;;19.50;99.90;;;;;;5074571;28;20806;-73
2022/06/24 04:01:23;;;;;;;5.10;2.30;;;19.50;99.90;;;;;;5072551;28;20882;-73
2022/06/24 04:04:09;;;;;;;8.73;2.70;;;19.50;99.90;;;;;;5068654;28;20469;-73
2022/06/24 04:06:55;;;;;;;4.43;1.70;;;19.50;99.90;;;;;;5075981;28;20504;-73
2022/06/24 04:09:42;;;;;;;3.80;1.70;;;19.50;99.90;;;;;;5073351;28;20561;-73
2022/06/24 04:12:28;;;;;;;4.90;1.87;;;19.50;99.90;;;;;;5075145;28;20450;-73
2022/06/24 04:15:18;;;;;;;14.73;2.63;;;19.30;99.90;;;;;;5067510;28;20948;-73
2022/06/24 04:18:04;;;;;;;10.33;2.20;;;19.40;99.90;;;;;;5081174;28;20556;-73
2022/06/24 04:20:50;;;;;;;4.27;1.90;;;19.40;99.90;;;;;;5078540;28;20468;-73
2022/06/24 04:23:35;;;;;;;7.80;1.93;;;19.40;99.90;;;;;;5069653;28;21033;-73
2022/06/24 04:26:22;;;;;;;4.77;1.80;;;19.40;99.90;;;;;;5069452;28;20459;-73
2022/06/24 04:29:08;;;;;;;5.17;1.70;;;19.40;99.90;;;;;;5067687;28;20433;-73
2022/06/24 04:31:53;;;;;;;5.97;2.13;;;19.50;99.90;;;;;;5076356;28;20801;-73
2022/06/24 04:34:39;;;;;;;4.20;2.23;;;19.50;99.90;;;;;;5070378;28;21008;-73
2022/06/24 04:37:25;;;;;;;5.03;1.67;;;19.50;99.90;;;;;;5071273;28;20463;-73
2022/06/24 04:40:12;;;;;;;6.70;2.03;;;19.60;99.90;;;;;;5074630;28;20565;-73
2022/06/24 04:43:00;;;;;;;4.37;1.83;;;19.70;99.90;;;;;;5070669;28;20459;-73
2022/06/24 04:45:46;;;;;;;4.67;2.07;;;19.70;99.90;;;;;;5061378;28;20528;-73
2022/06/24 04:48:32;;;;;;;6.30;1.97;;;19.70;99.90;;;;;;5069029;28;20449;-73
2022/06/24 04:51:17;;;;;;;7.20;1.67;;;19.70;99.90;;;;;;5078152;28;20530;-73
2022/06/24 04:54:03;;;;;;;4.33;1.60;;;19.60;99.90;;;;;;5067697;28;20872;-73
2022/06/24 04:56:49;;;;;;;5.53;2.07;;;19.70;99.90;;;;;;5072840;28;20478;-73
2022/06/24 04:59:36;;;;;;;11.87;1.90;;;19.60;99.90;;;;;;5075016;28;20561;-73
2022/06/24 05:02:21;;;;;;;4.90;2.17;;;19.60;99.90;;;;;;5067578;28;20485;-73
2022/06/24 05:05:08;;;;;;;10.67;2.57;;;19.60;99.90;;;;;;5065023;28;20895;-73
2022/06/24 05:07:54;;;;;;;8.07;2.70;;;19.70;99.90;;;;;;5076886;28;20417;-73
2022/06/24 05:10:41;;;;;;;8.93;1.80;;;19.70;99.90;;;;;;5076220;28;20442;-73
2022/06/24 05:13:27;;;;;;;5.80;1.77;;;19.80;99.90;;;;;;5062490;28;20506;-73
2022/06/24 05:16:14;;;;;;;5.60;2.47;;;19.90;99.90;;;;;;5081256;28;20472;-74
2022/06/24 05:19:00;;;;;;;9.20;2.10;;;20.00;99.90;;;;;;5078739;28;20442;-74
2022/06/24 05:21:46;;;;;;;7.93;2.27;;;20.10;99.90;;;;;;5069572;28;20480;-74
2022/06/24 05:24:32;;;;;;;8.97;2.40;;;20.20;99.90;;;;;;5063170;28;20462;-74
2022/06/24 05:27:17;;;;;;;9.20;2.03;;;20.30;99.90;;;;;;5071087;28;20492;-74
2022/06/24 05:30:03;;;;;;;3.93;1.97;;;20.50;99.90;;;;;;5080003;28;20572;-74
2022/06/24 05:32:51;;;;;;;5.07;1.80;;;20.60;99.90;;;;;;5068763;28;20562;-74
2022/06/24 05:35:37;;;;;;;6.13;2.07;;;20.70;99.90;;;;;;5073121;28;20521;-74
2022/06/24 05:38:23;;;;;;;7.57;2.10;;;20.80;99.90;;;;;;5070526;28;20466;-73
2022/06/24 05:41:09;;;;;;;4.53;2.23;;;20.80;99.90;;;;;;5078185;28;20426;-74
2022/06/24 05:43:55;;;;;;;7.93;2.77;;;20.90;99.90;;;;;;5068165;28;20842;-73
2022/06/24 05:46:41;;;;;;;9.33;2.50;;;20.90;99.90;;;;;;5072081;28;20462;-74
2022/06/24 05:49:28;;;;;;;15.10;2.90;;;20.90;99.90;;;;;;5074947;28;20449;-74
2022/06/24 05:52:14;;;;;;;10.03;3.77;;;20.70;99.90;;;;;;5075562;28;20473;-74
2022/06/24 05:55:05;;;;;;;12.17;3.53;;;20.70;99.90;;;;;;5073824;28;20426;-74
2022/06/24 05:57:50;;;;;;;6.17;3.63;;;20.60;99.90;;;;;;5079209;28;20471;-74
2022/06/24 06:00:37;;;;;;;7.77;3.70;;;20.60;99.90;;;;;;5069560;28;20450;-74
2022/06/24 06:03:22;;;;;;;7.30;3.10;;;20.60;99.90;;;;;;5065935;28;20486;-74
2022/06/24 06:06:10;;;;;;;10.57;3.97;;;20.70;99.90;;;;;;5074305;28;20477;-74
2022/06/24 06:08:57;;;;;;;10.07;3.03;;;20.70;99.90;;;;;;5075203;28;20430;-74
2022/06/24 06:11:43;;;;;;;7.80;3.33;;;20.70;99.90;;;;;;5080317;28;20963;-73
2022/06/24 06:14:29;;;;;;;8.13;2.90;;;20.80;99.90;;;;;;5081203;28;20458;-74
2022/06/24 06:17:15;;;;;;;9.33;3.90;;;20.80;99.90;;;;;;5066464;28;20470;-74
2022/06/24 06:20:01;;;;;;;7.00;3.20;;;20.90;99.90;;;;;;5073616;28;20434;-74
2022/06/24 06:22:49;;;;;;;7.70;3.60;;;20.80;99.90;;;;;;5072584;28;20451;-73
2022/06/24 06:25:35;;;;;;;7.90;3.93;;;20.90;99.90;;;;;;5069651;28;20518;-73
2022/06/24 06:28:20;;;;;;;9.03;4.60;;;20.90;99.90;;;;;;5080028;28;20427;-73
2022/06/24 06:31:08;;;;;;;6.67;4.27;;;20.90;99.90;;;;;;5080371;28;20426;-75
2022/06/24 06:33:53;;;;;;;11.17;5.33;;;20.80;99.90;;;;;;5077089;28;20620;-74
2022/06/24 06:36:39;;;;;;;6.70;4.70;;;20.60;99.90;;;;;;5083021;28;20442;-74
2022/06/24 06:39:26;;;;;;;7.33;4.50;;;20.40;99.90;;;;;;5076699;28;21155;-74
2022/06/24 06:42:12;;;;;;;7.40;4.40;;;20.30;99.90;;;;;;5064453;28;20450;-74
2022/06/24 06:45:00;;;;;;;6.50;4.27;;;20.40;99.90;;;;;;5072158;28;20446;-74
2022/06/24 06:47:45;;;;;;;9.57;4.77;;;20.40;99.90;;;;;;5077443;28;20458;-74
2022/06/24 06:50:32;;;;;;;6.97;4.17;;;20.60;99.90;;;;;;5068321;28;20427;-74
2022/06/24 06:53:17;;;;;;;7.10;4.70;;;20.70;99.90;;;;;;5072818;28;21029;-74
2022/06/24 06:56:05;;;;;;;9.53;5.33;;;20.80;99.90;;;;;;5084015;28;20478;-74
2022/06/24 06:58:51;;;;;;;10.47;4.53;;;20.90;99.90;;;;;;5080725;28;20482;-74
2022/06/24 07:01:36;;;;;;;9.47;4.73;;;21.00;99.90;;;;;;5065103;28;20582;-74
2022/06/24 07:04:22;;;;;;;7.73;4.10;;;21.10;99.90;;;;;;5068416;28;20465;-74
2022/06/24 07:07:08;;;;;;;6.97;3.80;;;21.20;99.90;;;;;;5071497;28;20446;-74
2022/06/24 07:09:54;;;;;;;6.80;4.00;;;21.00;99.90;;;;;;5072968;28;20990;-73
2022/06/24 07:12:41;;;;;;;6.53;3.73;;;21.00;99.90;;;;;;5071602;28;20500;-74
2022/06/24 07:15:27;;;;;;;7.03;3.53;;;21.00;99.90;;;;;;5073788;28;20827;-74
2022/06/24 07:18:13;;;;;;;11.07;3.83;;;21.10;99.90;;;;;;5058860;28;20482;-74
2022/06/24 07:20:59;;;;;;;9.93;3.97;;;21.10;99.90;;;;;;5076342;28;20442;-74
2022/06/24 07:23:45;;;;;;;11.90;4.07;;;21.20;99.90;;;;;;5073650;28;20457;-73
2022/06/24 07:26:31;;;;;;;4.63;3.37;;;21.10;99.90;;;;;;5072194;28;20476;-73
2022/06/24 07:29:18;;;;;;;5.80;3.07;;;21.20;99.90;;;;;;5076247;28;21051;-73
2022/06/24 07:32:05;;;;;;;7.23;3.33;;;21.10;99.90;;;;;;5080160;28;20450;-75
2022/06/24 07:34:51;;;;;;;8.67;3.57;;;21.20;99.90;;;;;;5078522;28;20577;-74
2022/06/24 07:37:36;;;;;;;5.07;3.63;;;21.20;99.90;;;;;;5072342;28;20478;-74
2022/06/24 07:40:23;;;;;;;4.67;3.20;;;21.30;99.90;;;;;;5079897;28;20726;-74
2022/06/24 07:43:08;;;;;;;6.03;3.53;;;21.40;99.90;;;;;;5071611;28;20482;-74
2022/06/24 07:45:56;;;;;;;7.27;3.87;;;21.50;99.90;;;;;;5079506;28;20810;-74
2022/06/24 07:48:42;;;;;;;5.17;3.17;;;21.60;99.90;;;;;;5073438;28;20438;-73
2022/06/24 07:51:27;;;;;;;7.30;3.33;;;21.40;99.90;;;;;;5078501;28;20982;-74
2022/06/24 07:54:13;;;;;;;10.47;2.90;;;21.40;99.90;;;;;;5068314;28;20474;-73
2022/06/24 07:56:58;;;;;;;11.50;3.20;;;21.60;99.90;;;;;;5074432;28;20972;-74
2022/06/24 07:59:46;;;;;;;5.53;3.00;;;21.70;99.90;;;;;;5072043;28;20441;-73
2022/06/24 08:02:33;;;;;;;9.37;4.40;;;21.70;99.90;;;;;;5064107;28;20585;-74
2022/06/24 08:05:19;;;;;;;11.10;2.80;;;21.80;99.90;;;;;;5070460;28;20456;-74
2022/06/24 08:08:05;;;;;;;5.93;2.60;;;21.70;99.90;;;;;;5074702;28;20441;-74
2022/06/24 08:10:51;;;;;;;7.43;2.92;;;21.70;99.90;;;;;;5070834;28;20977;-73
2022/06/24 08:13:36;;;;;;;4.67;2.80;;;21.70;99.90;;;;;;5066941;28;20231;-73
2022/06/24 08:16:22;;;;;;;3.60;2.60;;;21.70;99.90;;;;;;5082346;28;20425;-73
2022/06/24 08:19:10;;;;;;;5.37;2.80;;;21.80;99.90;;;;;;5078363;28;20459;-73
2022/06/24 08:21:55;;;;;;;5.30;2.47;;;21.90;99.90;;;;;;5066380;28;20470;-72
2022/06/24 08:24:41;;;;;;;11.50;3.20;;;22.10;99.90;;;;;;5072618;28;20550;-73
2022/06/24 08:27:27;;;;;;;13.50;3.23;;;22.00;99.90;;;;;;5066212;28;20478;-74
2022/06/24 08:30:13;;;;;;;6.87;2.87;;;22.00;99.90;;;;;;5077258;28;20437;-74
2022/06/24 08:32:59;;;;;;;7.33;2.90;;;21.90;99.90;;;;;;5064824;28;20538;-73
2022/06/24 08:35:46;;;;;;;5.37;2.47;;;21.90;99.90;;;;;;5072433;28;21655;-73
2022/06/24 08:38:32;;;;;;;4.23;2.57;;;22.00;99.90;;;;;;5069120;28;20462;-75
2022/06/24 08:41:22;;;;;;;7.97;3.20;;;22.20;99.90;;;;;;5078690;28;20572;-74
2022/06/24 08:44:08;;;;;;;5.53;2.67;;;22.20;99.90;;;;;;5069917;28;20541;-74
2022/06/24 08:46:53;;;;;;;5.67;2.30;;;22.30;99.90;;;;;;5077131;28;20442;-74
2022/06/24 08:49:39;;;;;;;4.63;3.00;;;22.50;99.90;;;;;;5068104;28;20893;-74
2022/06/24 08:52:26;;;;;;;5.73;2.73;;;22.60;99.90;;;;;;5073470;28;20472;-73
2022/06/24 08:55:17;;;;;;;5.30;3.00;;;22.50;99.90;;;;;;5068249;28;20427;-74
2022/06/24 08:58:06;;;;;;;7.50;2.87;;;22.30;99.90;;;;;;5084155;28;20662;-74
2022/06/24 09:00:52;;;;;;;6.93;2.90;;;22.30;99.90;;;;;;5069324;28;20493;-74
2022/06/24 09:03:38;;;;;;;5.30;3.40;;;22.30;99.90;;;;;;5066093;28;20819;-73
2022/06/24 09:06:23;;;;;;;3.63;2.27;;;22.30;99.90;;;;;;5069078;28;20552;-74
2022/06/24 09:09:12;;;;;;;4.47;2.30;;;22.40;99.90;;;;;;5064803;28;20581;-74
2022/06/24 09:12:00;;;;;;;5.27;2.97;;;22.40;99.90;;;;;;5068915;28;20647;-74
2022/06/24 09:14:48;;;;;;;7.30;2.57;;;22.40;99.90;;;;;;5068366;28;20833;-73
2022/06/24 09:17:35;;;;;;;6.43;3.43;;;22.50;99.90;;;;;;5077363;28;20462;-74
2022/06/24 09:20:22;;;;;;;6.40;2.40;;;22.70;99.90;;;;;;5066989;28;20442;-74
2022/06/24 09:23:09;;;;;;;5.10;2.20;;;23.00;99.90;;;;;;5062520;28;20466;-73
2022/06/24 09:26:00;;;;;;;3.73;2.20;;;23.20;99.90;;;;;;5073006;28;20495;-74
2022/06/24 09:28:54;;;;;;;3.97;2.37;;;23.00;99.90;;;;;;5077078;28;20430;-73
2022/06/24 09:31:40;;;;;;;8.00;2.60;;;22.80;99.90;;;;;;5078258;28;20451;-74
2022/06/24 09:34:25;;;;;;;4.50;2.10;;;22.70;99.90;;;;;;5083418;28;20444;-74
2022/06/24 09:37:11;;;;;;;4.17;2.83;;;22.70;99.90;;;;;;5086224;28;20822;-74
2022/06/24 09:39:56;;;;;;;3.53;2.50;;;22.90;99.90;;;;;;5076306;28;20589;-73
2022/06/24 09:42:44;;;;;;;13.37;2.40;;;22.90;99.90;;;;;;5070781;28;20434;-74
2022/06/24 09:45:44;;;;;;;5.53;3.60;;;23.00;99.90;;;;;;5077287;28;20454;-73
2022/06/24 09:48:32;;;;;;;11.53;3.03;;;23.20;99.90;;;;;;5070003;28;20601;-74
2022/06/24 09:51:18;;;;;;;5.57;2.03;;;23.20;99.90;;;;;;5066098;28;20485;-74
2022/06/24 09:54:05;;;;;;;3.40;2.50;;;23.30;99.90;;;;;;5074429;28;20822;-74
2022/06/24 09:56:52;;;;;;;4.93;2.67;;;23.40;99.90;;;;;;5075788;28;20442;-72
2022/06/24 10:02:44;;;;;;;7.87;2.50;;;23.70;99.90;;;;;;5071590;28;20966;-74
2022/06/24 10:05:35;;;;;;;3.90;2.20;;;23.70;99.90;;;;;;5075897;28;20447;-74
2022/06/24 10:08:22;;;;;;;4.60;2.37;;;23.90;98.90;;;;;;5075508;28;20979;-74
2022/06/24 10:11:10;;;;;;;5.93;3.27;;;24.00;98.00;;;;;;5070896;28;20459;-73
2022/06/24 10:13:57;;;;;;;3.90;2.67;;;23.80;93.30;;;;;;5067042;28;20482;-74
2022/06/24 10:16:47;;;;;;;5.27;2.67;;;23.60;96.00;;;;;;5072912;28;20806;-73
2022/06/24 10:19:34;;;;;;;4.33;2.23;;;23.70;96.10;;;;;;5073731;28;20470;-73
2022/06/24 10:22:37;;;;;;;4.43;3.13;;;23.80;94.70;;;;;;5074605;28;20532;-73
2022/06/24 10:25:38;;;;;;;5.40;3.03;;;23.90;95.30;;;;;;5065866;28;20580;-75
2022/06/24 10:28:23;;;;;;;3.70;2.33;;;24.10;92.50;;;;;;5075653;28;20552;-76
2022/06/24 10:31:09;;;;;;;4.77;2.77;;;24.10;91.90;;;;;;5060330;28;20510;-75
2022/06/24 10:33:57;;;;;;;3.33;2.50;;;24.20;93.50;;;;;;5081059;28;20474;-75
2022/06/24 10:36:43;;;;;;;4.80;3.10;;;24.10;92.80;;;;;;5069381;28;20524;-74
2022/06/24 10:39:31;;;;;;;5.97;2.90;;;24.10;92.80;;;;;;5072481;28;20478;-74
2022/06/24 10:42:20;;;;;;;5.37;2.40;;;24.10;90.80;;;;;;5060287;28;20439;-74
2022/06/24 10:45:07;;;;;;;4.30;3.20;;;23.90;91.00;;;;;;5082521;28;20422;-75
2022/06/24 10:47:53;;;;;;;11.70;2.50;;;23.90;91.60;;;;;;5074264;28;20445;-74
2022/06/24 10:50:40;;;;;;;5.13;3.00;;;23.90;92.70;;;;;;5062317;28;20444;-73
2022/06/24 10:53:26;;;;;;;5.10;2.57;;;24.20;91.80;;;;;;5068914;28;20548;-74
2022/06/24 10:56:39;;;;;;;4.77;2.30;;;24.30;87.40;;;;;;5068615;28;20442;-74
2022/06/24 10:59:24;;;;;;;4.43;2.43;;;24.40;87.50;;;;;;5066712;28;20683;-75
2022/06/24 11:02:10;;;;;;;3.70;2.60;;;24.70;90.00;;;;;;5065875;28;21026;-75
2022/06/24 11:04:57;;;;;;;6.00;2.50;;;24.70;78.40;;;;;;5069830;28;20798;-75
2022/06/24 11:07:46;;;;;;;5.20;2.40;;;24.90;81.10;;;;;;5069598;28;20446;-75
2022/06/24 11:10:33;;;;;;;3.90;2.70;;;24.90;80.20;;;;;;5065842;28;20442;-73
2022/06/24 11:13:21;;;;;;;5.33;2.80;;;24.70;75.00;;;;;;5065089;28;20552;-75
2022/06/24 11:16:06;;;;;;;6.10;2.67;;;24.50;78.00;;;;;;5067456;22;20641;-74
2022/06/24 11:18:52;;;;;;;3.57;1.80;;;24.30;76.00;;;;;;5049505;28;21115;-73
2022/06/24 11:21:46;;;;;;;5.80;2.50;;;24.20;79.50;;;;;;5044450;28;20826;-74
2022/06/24 11:24:35;;;;;;;5.50;2.67;;;24.40;81.30;;;;;;5046141;28;20474;-73
2022/06/24 11:27:21;;;;;;;3.00;2.37;;;24.70;78.40;;;;;;5048693;28;20574;-74
2022/06/24 11:30:08;;;;;;;3.30;2.30;;;24.80;77.60;;;;;;5047877;28;20443;-72
2022/06/24 11:32:54;;;;;;;10.83;2.47;;;24.80;76.90;;;;;;5050142;28;20450;-74
2022/06/24 11:35:40;;;;;;;6.60;2.50;;;24.80;77.50;;;;;;5044490;28;20826;-75
2022/06/24 11:38:25;;;;;;;11.23;3.27;;;25.00;78.20;;;;;;5049055;28;20661;-74
2022/06/24 11:41:22;;;;;;;4.93;2.57;;;25.30;77.50;;;;;;5044644;28;20502;-74
2022/06/24 11:44:07;;;;;;;5.90;2.70;;;25.30;72.10;;;;;;5050010;28;20797;-74
2022/06/24 11:46:53;;;;;;;3.30;2.70;;;25.30;70.60;;;;;;5050482;28;20451;-72
2022/06/24 11:49:42;;;;;;;4.80;2.53;;;25.60;69.30;;;;;;5043694;28;20459;-73
2022/06/24 11:52:27;;;;;;;3.00;1.63;;;25.80;68.30;;;;;;5045400;28;20451;-72
2022/06/24 11:55:24;;;;;;;2.70;2.10;;;25.90;62.30;;;;;;5048400;28;20555;-72
2022/06/24 11:58:12;;;;;;;5.23;2.27;;;26.20;64.20;;;;;;5047930;28;20530;-71
2022/06/24 12:00:57;;;;;;;6.63;2.33;;;26.40;60.20;;;;;;5043166;28;20586;-72
2022/06/24 12:03:44;;;;;;;5.43;2.50;;;26.50;59.90;;;;;;5047683;28;20762;-71
2022/06/24 12:06:30;;;;;;;5.10;2.87;;;26.50;59.90;;;;;;5045300;28;20865;-73
2022/06/24 12:09:17;;;;;;;5.00;2.17;;;26.40;63.60;;;;;;5049754;28;20440;-73
2022/06/24 12:12:10;;;;;;;3.53;2.00;;;26.20;63.00;;;;;;5047198;28;20498;-74
2022/06/24 12:14:57;;;;;;;4.00;2.63;;;26.30;64.20;;;;;;5051145;28;20533;-74
2022/06/24 12:17:52;;;;;;;10.03;2.60;;;26.30;59.70;;;;;;5058215;28;20427;-75
2022/06/24 12:20:37;;;;;;;4.60;2.80;;;26.20;62.30;;;;;;5046150;28;20475;-74
2022/06/24 12:23:25;;;;;;;3.50;2.23;;;26.20;63.00;;;;;;5049633;28;21068;-72
2022/06/24 12:26:16;;;;;;;3.10;2.30;;;26.00;59.50;;;;;;5045215;28;20614;-72
2022/06/24 12:29:03;;;;;;;5.77;2.60;;;26.00;60.70;;;;;;5046699;28;20534;-72
2022/06/24 12:31:52;;;;;;;6.37;2.70;;;26.20;59.90;;;;;;5047655;28;20502;-72
2022/06/24 12:34:39;;;;;;;3.70;2.50;;;26.20;58.60;;;;;;5051193;28;20822;-72
2022/06/24 12:37:25;;;;;;;6.40;2.60;;;26.00;56.90;;;;;;5048566;28;20443;-72
2022/06/24 12:40:22;;;;;;;3.90;2.80;;;25.80;57.10;;;;;;5044197;28;20559;-72
2022/06/24 12:43:11;;;;;;;4.33;2.60;;;25.70;57.70;;;;;;5045711;28;20992;-72
2022/06/24 12:45:58;;;;;;;4.47;2.30;;;25.60;60.20;;;;;;5047513;28;20836;-72
2022/06/24 12:51:49;;;;;;;3.20;2.27;;;26.30;54.30;;;;;;5049335;28;20804;-72
2022/06/24 12:54:35;;;;;;;5.33;2.10;;;26.50;54.70;;;;;;5047035;28;20602;-71
2022/06/24 12:57:20;;;;;;;4.20;2.20;;;26.80;51.00;;;;;;5047247;28;20447;-72
2022/06/24 13:00:08;;;;;;;2.90;2.07;;;27.00;52.40;;;;;;5050134;28;20982;-72
2022/06/24 13:02:56;;;;;;;4.37;2.20;;;27.20;50.40;;;;;;5053684;28;20558;-72
2022/06/24 13:05:43;;;;;;;5.60;2.10;;;27.30;49.60;;;;;;5052473;28;20467;-72
2022/06/24 13:08:29;;;;;;;2.57;1.93;;;27.40;50.20;;;;;;5055402;28;20455;-72
2022/06/24 13:11:15;;;;;;;5.63;2.53;;;27.40;48.20;;;;;;5046541;28;20505;-73
2022/06/24 13:14:01;;;;;;;8.27;2.27;;;27.50;51.00;;;;;;5049544;28;20466;-72
2022/06/24 13:16:47;;;;;;;4.53;2.40;;;27.70;48.90;;;;;;5053668;28;20446;-72
2022/06/24 13:19:32;;;;;;;6.33;2.40;;;27.80;47.20;;;;;;5048721;28;20475;-73
2022/06/24 13:22:19;;;;;;;4.17;2.30;;;27.90;47.20;;;;;;5051997;28;20451;-72
2022/06/24 13:25:06;;;;;;;6.00;2.60;;;27.80;47.20;;;;;;5051511;28;21118;-73
2022/06/24 13:27:52;;;;;;;6.70;2.53;;;27.80;47.20;;;;;;5049967;28;20967;-71
2022/06/24 13:30:38;;;;;;;3.83;2.10;;;27.70;47.10;;;;;;5049241;28;20438;-70
2022/06/24 13:33:24;;;;;;;4.80;2.40;;;27.70;46.60;;;;;;5051909;28;20591;-73
2022/06/24 13:36:09;;;;;;;3.50;2.20;;;27.50;45.40;;;;;;5052875;28;21094;-72
2022/06/24 13:38:56;;;;;;;4.27;2.73;;;27.70;46.80;;;;;;5049014;28;20462;-71
2022/06/24 13:41:42;;;;;;;3.27;2.30;;;27.70;44.40;;;;;;5052822;28;20451;-73
2022/06/24 13:44:28;;;;;;;6.70;1.87;;;28.00;46.80;;;;;;5052846;28;20463;-73
2022/06/24 13:47:13;;;;;;;5.90;2.03;;;28.20;44.90;;;;;;5050700;28;20468;-72
2022/06/24 13:49:59;;;;;;;3.67;2.30;;;28.50;46.50;;;;;;5049990;28;20455;-72
2022/06/24 13:52:45;;;;;;;2.90;2.00;;;28.40;42.90;;;;;;5062543;28;20977;-72
2022/06/24 13:55:32;;;;;;;4.73;2.47;;;28.40;43.40;;;;;;5039944;28;20447;-71
2022/06/24 13:58:18;;;;;;;3.30;2.27;;;28.40;42.90;;;;;;5052059;28;20928;-71
2022/06/24 14:01:04;;;;;;;4.50;2.40;;;28.10;42.40;;;;;;5044809;28;20474;-70
2022/06/24 14:03:49;;;;;;;6.07;2.20;;;27.60;43.40;;;;;;5049129;28;20459;-71
2022/06/24 14:06:35;;;;;;;6.03;2.20;;;27.30;45.20;;;;;;5053337;28;20454;-71
2022/06/24 14:09:21;;;;;;;6.80;2.87;;;27.20;46.70;;;;;;5048072;28;20499;-71
2022/06/24 14:12:09;;;;;;;4.30;2.70;;;27.10;44.90;;;;;;5043286;28;20442;-71
2022/06/24 14:14:55;;;;;;;8.00;2.37;;;26.90;45.50;;;;;;5054718;28;20540;-71
2022/06/24 14:17:41;;;;;;;3.47;1.90;;;27.00;47.60;;;;;;5056507;28;20559;-71
2022/06/24 14:20:26;;;;;;;3.47;2.10;;;27.10;47.90;;;;;;5047755;28;20526;-71
2022/06/24 14:26:16;;;;;;;5.30;2.23;;;27.20;47.80;;;;;;5051008;28;20521;-72
2022/06/24 14:29:03;;;;;;;4.07;2.40;;;27.30;48.90;;;;;;5052216;28;20436;-71
2022/06/24 14:31:49;;;;;;;5.50;2.80;;;27.60;44.30;;;;;;5049393;28;20439;-71
2022/06/24 14:34:35;;;;;;;5.23;1.87;;;27.70;42.70;;;;;;5052363;28;21107;-71
2022/06/24 14:40:24;;;;;;;3.67;2.10;;;27.20;43.60;;;;;;5047133;28;21081;-72
2022/06/24 14:43:10;;;;;;;11.97;2.43;;;27.20;44.90;;;;;;5050164;28;20435;-71